sensor_id;sensor_type;location;lat;lon;timestamp;P1;durP1;ratioP1;P2;durP2;ratioP2
23376;SDS011;14353;46.070;13.222;2023-06-10T00:00:40;5.50;;;5.00;;
23376;SDS011;14353;46.070;13.222;2023-06-10T00:03:07;6.22;;;5.28;;
23376;SDS011;14353;46.070;13.222;2023-06-10T00:05:33;5.85;;;4.65;;
23376;SDS011;14353;46.070;13.222;2023-06-10T00:08:00;6.00;;;5.40;;
23376;SDS011;14353;46.070;13.222;2023-06-10T00:10:32;5.30;;;4.80;;
23376;SDS011;14353;46.070;13.222;2023-06-10T00:13:04;5.22;;;4.72;;
23376;SDS011;14353;46.070;13.222;2023-06-10T00:15:32;5.55;;;5.05;;
23376;SDS011;14353;46.070;13.222;2023-06-10T00:17:58;5.47;;;4.97;;
23376;SDS011;14353;46.070;13.222;2023-06-10T00:20:24;6.65;;;5.30;;
23376;SDS011;14353;46.070;13.222;2023-06-10T00:22:50;5.18;;;4.68;;
23376;SDS011;14353;46.070;13.222;2023-06-10T00:25:16;5.47;;;4.97;;
23376;SDS011;14353;46.070;13.222;2023-06-10T00:27:42;5.25;;;4.75;;
23376;SDS011;14353;46.070;13.222;2023-06-10T00:30:08;5.50;;;4.93;;
23376;SDS011;14353;46.070;13.222;2023-06-10T00:32:34;7.13;;;5.22;;
23376;SDS011;14353;46.070;13.222;2023-06-10T00:35:01;6.05;;;5.18;;
23376;SDS011;14353;46.070;13.222;2023-06-10T00:37:28;8.57;;;4.78;;
23376;SDS011;14353;46.070;13.222;2023-06-10T00:39:54;5.72;;;5.13;;
23376;SDS011;14353;46.070;13.222;2023-06-10T00:42:20;5.68;;;5.18;;
23376;SDS011;14353;46.070;13.222;2023-06-10T00:44:47;6.40;;;4.90;;
23376;SDS011;14353;46.070;13.222;2023-06-10T00:47:13;5.60;;;5.05;;
23376;SDS011;14353;46.070;13.222;2023-06-10T00:49:39;7.18;;;5.18;;
23376;SDS011;14353;46.070;13.222;2023-06-10T00:52:05;4.95;;;4.50;;
23376;SDS011;14353;46.070;13.222;2023-06-10T00:54:33;5.38;;;4.80;;
23376;SDS011;14353;46.070;13.222;2023-06-10T00:57:00;5.60;;;5.10;;
23376;SDS011;14353;46.070;13.222;2023-06-10T00:59:28;5.38;;;4.88;;
23376;SDS011;14353;46.070;13.222;2023-06-10T01:01:55;5.68;;;5.15;;
23376;SDS011;14353;46.070;13.222;2023-06-10T01:04:21;5.10;;;4.60;;
23376;SDS011;14353;46.070;13.222;2023-06-10T01:07:05;5.55;;;5.05;;
23376;SDS011;14353;46.070;13.222;2023-06-10T01:15:21;5.72;;;5.18;;
23376;SDS011;14353;46.070;13.222;2023-06-10T01:18:03;7.70;;;5.10;;
23376;SDS011;14353;46.070;13.222;2023-06-10T01:20:33;5.15;;;4.65;;
23376;SDS011;14353;46.070;13.222;2023-06-10T01:23:02;6.03;;;5.00;;
23376;SDS011;14353;46.070;13.222;2023-06-10T01:25:28;5.53;;;4.60;;
23376;SDS011;14353;46.070;13.222;2023-06-10T01:28:10;5.22;;;4.75;;
23376;SDS011;14353;46.070;13.222;2023-06-10T01:31:16;5.65;;;4.85;;
23376;SDS011;14353;46.070;13.222;2023-06-10T01:33:59;5.13;;;4.72;;
23376;SDS011;14353;46.070;13.222;2023-06-10T01:36:25;5.80;;;5.30;;
23376;SDS011;14353;46.070;13.222;2023-06-10T01:38:52;6.05;;;4.65;;
23376;SDS011;14353;46.070;13.222;2023-06-10T01:41:19;7.97;;;5.15;;
23376;SDS011;14353;46.070;13.222;2023-06-10T01:43:46;6.32;;;5.30;;
23376;SDS011;14353;46.070;13.222;2023-06-10T01:46:13;6.68;;;5.13;;
23376;SDS011;14353;46.070;13.222;2023-06-10T01:48:39;5.80;;;5.28;;
23376;SDS011;14353;46.070;13.222;2023-06-10T01:51:06;5.78;;;5.10;;
23376;SDS011;14353;46.070;13.222;2023-06-10T01:53:31;5.75;;;5.07;;
23376;SDS011;14353;46.070;13.222;2023-06-10T01:55:57;5.88;;;5.20;;
23376;SDS011;14353;46.070;13.222;2023-06-10T01:58:23;5.38;;;4.88;;
23376;SDS011;14353;46.070;13.222;2023-06-10T02:00:48;5.38;;;4.80;;
23376;SDS011;14353;46.070;13.222;2023-06-10T02:03:14;5.38;;;4.85;;
23376;SDS011;14353;46.070;13.222;2023-06-10T02:05:40;5.50;;;5.00;;
23376;SDS011;14353;46.070;13.222;2023-06-10T02:08:06;5.82;;;5.22;;
23376;SDS011;14353;46.070;13.222;2023-06-10T02:10:31;6.10;;;4.85;;
23376;SDS011;14353;46.070;13.222;2023-06-10T02:12:57;5.57;;;5.07;;
23376;SDS011;14353;46.070;13.222;2023-06-10T02:15:23;6.63;;;4.95;;
23376;SDS011;14353;46.070;13.222;2023-06-10T02:17:49;5.93;;;4.88;;
23376;SDS011;14353;46.070;13.222;2023-06-10T02:20:15;5.00;;;4.50;;
23376;SDS011;14353;46.070;13.222;2023-06-10T02:22:41;7.25;;;4.90;;
23376;SDS011;14353;46.070;13.222;2023-06-10T02:25:07;5.50;;;4.72;;
23376;SDS011;14353;46.070;13.222;2023-06-10T02:27:33;5.97;;;4.93;;
23376;SDS011;14353;46.070;13.222;2023-06-10T02:29:59;5.43;;;4.80;;
23376;SDS011;14353;46.070;13.222;2023-06-10T02:32:25;5.30;;;4.80;;
23376;SDS011;14353;46.070;13.222;2023-06-10T02:34:51;6.38;;;4.65;;
23376;SDS011;14353;46.070;13.222;2023-06-10T02:37:17;5.70;;;4.97;;
23376;SDS011;14353;46.070;13.222;2023-06-10T02:39:43;5.10;;;4.50;;
23376;SDS011;14353;46.070;13.222;2023-06-10T02:42:09;5.35;;;4.85;;
23376;SDS011;14353;46.070;13.222;2023-06-10T02:44:35;5.05;;;4.55;;
23376;SDS011;14353;46.070;13.222;2023-06-10T02:47:01;6.63;;;4.82;;
23376;SDS011;14353;46.070;13.222;2023-06-10T02:49:27;5.20;;;4.70;;
23376;SDS011;14353;46.070;13.222;2023-06-10T02:51:53;6.38;;;5.07;;
23376;SDS011;14353;46.070;13.222;2023-06-10T02:54:20;5.57;;;4.80;;
23376;SDS011;14353;46.070;13.222;2023-06-10T02:56:46;5.50;;;4.90;;
23376;SDS011;14353;46.070;13.222;2023-06-10T02:59:13;5.45;;;4.75;;
23376;SDS011;14353;46.070;13.222;2023-06-10T03:01:39;5.47;;;4.90;;
23376;SDS011;14353;46.070;13.222;2023-06-10T03:04:05;5.82;;;5.20;;
23376;SDS011;14353;46.070;13.222;2023-06-10T03:06:32;5.25;;;4.85;;
23376;SDS011;14353;46.070;13.222;2023-06-10T03:09:01;5.68;;;5.07;;
23376;SDS011;14353;46.070;13.222;2023-06-10T03:11:29;4.97;;;4.50;;
23376;SDS011;14353;46.070;13.222;2023-06-10T03:13:56;5.22;;;4.72;;
23376;SDS011;14353;46.070;13.222;2023-06-10T03:16:22;6.57;;;4.90;;
23376;SDS011;14353;46.070;13.222;2023-06-10T03:18:50;5.80;;;4.78;;
23376;SDS011;14353;46.070;13.222;2023-06-10T03:21:16;5.18;;;4.68;;
23376;SDS011;14353;46.070;13.222;2023-06-10T03:23:41;8.13;;;5.03;;
23376;SDS011;14353;46.070;13.222;2023-06-10T03:26:07;6.32;;;4.82;;
23376;SDS011;14353;46.070;13.222;2023-06-10T03:28:35;5.38;;;4.82;;
23376;SDS011;14353;46.070;13.222;2023-06-10T03:31:00;5.05;;;4.57;;
23376;SDS011;14353;46.070;13.222;2023-06-10T03:33:26;6.35;;;5.00;;
23376;SDS011;14353;46.070;13.222;2023-06-10T03:35:52;4.75;;;4.35;;
23376;SDS011;14353;46.070;13.222;2023-06-10T03:38:17;6.47;;;4.75;;
23376;SDS011;14353;46.070;13.222;2023-06-10T03:40:43;6.00;;;5.30;;
23376;SDS011;14353;46.070;13.222;2023-06-10T03:43:08;5.65;;;5.00;;
23376;SDS011;14353;46.070;13.222;2023-06-10T03:45:35;6.45;;;4.70;;
23376;SDS011;14353;46.070;13.222;2023-06-10T03:48:01;5.13;;;4.63;;
23376;SDS011;14353;46.070;13.222;2023-06-10T03:50:28;5.20;;;4.63;;
23376;SDS011;14353;46.070;13.222;2023-06-10T03:52:54;5.15;;;4.65;;
23376;SDS011;14353;46.070;13.222;2023-06-10T03:55:19;5.32;;;4.80;;
23376;SDS011;14353;46.070;13.222;2023-06-10T03:57:47;5.22;;;4.75;;
23376;SDS011;14353;46.070;13.222;2023-06-10T04:00:13;5.50;;;4.60;;
23376;SDS011;14353;46.070;13.222;2023-06-10T04:02:40;5.30;;;4.80;;
23376;SDS011;14353;46.070;13.222;2023-06-10T04:05:15;6.00;;;5.20;;
23376;SDS011;14353;46.070;13.222;2023-06-10T04:07:41;6.68;;;5.13;;
23376;SDS011;14353;46.070;13.222;2023-06-10T04:10:09;6.45;;;4.68;;
23376;SDS011;14353;46.070;13.222;2023-06-10T04:12:35;6.13;;;5.40;;
23376;SDS011;14353;46.070;13.222;2023-06-10T04:15:02;5.20;;;4.50;;
23376;SDS011;14353;46.070;13.222;2023-06-10T04:17:28;4.85;;;4.35;;
23376;SDS011;14353;46.070;13.222;2023-06-10T04:19:53;6.60;;;5.32;;
23376;SDS011;14353;46.070;13.222;2023-06-10T04:22:20;6.07;;;4.97;;
23376;SDS011;14353;46.070;13.222;2023-06-10T04:24:45;6.60;;;4.85;;
23376;SDS011;14353;46.070;13.222;2023-06-10T04:27:11;5.78;;;4.40;;
23376;SDS011;14353;46.070;13.222;2023-06-10T04:29:37;4.90;;;4.50;;
23376;SDS011;14353;46.070;13.222;2023-06-10T04:32:03;6.75;;;4.97;;
23376;SDS011;14353;46.070;13.222;2023-06-10T04:34:31;5.03;;;4.60;;
23376;SDS011;14353;46.070;13.222;2023-06-10T04:36:57;6.82;;;4.57;;
23376;SDS011;14353;46.070;13.222;2023-06-10T04:39:23;5.28;;;4.78;;
23376;SDS011;14353;46.070;13.222;2023-06-10T04:41:49;5.30;;;4.80;;
23376;SDS011;14353;46.070;13.222;2023-06-10T04:44:14;5.55;;;4.80;;
23376;SDS011;14353;46.070;13.222;2023-06-10T04:46:40;4.88;;;4.47;;
23376;SDS011;14353;46.070;13.222;2023-06-10T04:49:06;4.68;;;4.28;;
23376;SDS011;14353;46.070;13.222;2023-06-10T04:51:31;6.32;;;4.90;;
23376;SDS011;14353;46.070;13.222;2023-06-10T04:53:57;4.80;;;4.35;;
23376;SDS011;14353;46.070;13.222;2023-06-10T04:56:27;5.20;;;4.70;;
23376;SDS011;14353;46.070;13.222;2023-06-10T04:58:53;5.00;;;4.57;;
23376;SDS011;14353;46.070;13.222;2023-06-10T05:01:19;5.60;;;5.10;;
23376;SDS011;14353;46.070;13.222;2023-06-10T05:03:45;6.15;;;4.93;;
23376;SDS011;14353;46.070;13.222;2023-06-10T05:06:10;4.90;;;4.50;;
23376;SDS011;14353;46.070;13.222;2023-06-10T05:08:36;5.72;;;4.70;;
23376;SDS011;14353;46.070;13.222;2023-06-10T05:11:02;5.82;;;5.13;;
23376;SDS011;14353;46.070;13.222;2023-06-10T05:13:28;5.32;;;4.82;;
23376;SDS011;14353;46.070;13.222;2023-06-10T05:15:54;5.93;;;5.05;;
23376;SDS011;14353;46.070;13.222;2023-06-10T05:18:20;5.57;;;4.50;;
23376;SDS011;14353;46.070;13.222;2023-06-10T05:20:46;5.07;;;4.53;;
23376;SDS011;14353;46.070;13.222;2023-06-10T05:23:12;4.97;;;4.53;;
23376;SDS011;14353;46.070;13.222;2023-06-10T05:25:37;5.35;;;4.85;;
23376;SDS011;14353;46.070;13.222;2023-06-10T05:28:03;6.28;;;4.82;;
23376;SDS011;14353;46.070;13.222;2023-06-10T05:33:13;5.13;;;4.57;;
23376;SDS011;14353;46.070;13.222;2023-06-10T05:35:39;6.45;;;4.47;;
23376;SDS011;14353;46.070;13.222;2023-06-10T05:38:05;5.00;;;4.50;;
23376;SDS011;14353;46.070;13.222;2023-06-10T05:40:31;5.82;;;5.18;;
23376;SDS011;14353;46.070;13.222;2023-06-10T05:42:57;8.23;;;5.05;;
23376;SDS011;14353;46.070;13.222;2023-06-10T05:45:23;9.48;;;5.10;;
23376;SDS011;14353;46.070;13.222;2023-06-10T05:47:48;9.18;;;5.43;;
23376;SDS011;14353;46.070;13.222;2023-06-10T05:50:14;7.68;;;5.40;;
23376;SDS011;14353;46.070;13.222;2023-06-10T05:52:40;6.72;;;5.25;;
23376;SDS011;14353;46.070;13.222;2023-06-10T05:55:06;8.95;;;5.05;;
23376;SDS011;14353;46.070;13.222;2023-06-10T05:57:32;5.90;;;4.65;;
23376;SDS011;14353;46.070;13.222;2023-06-10T05:59:59;5.70;;;5.05;;
23376;SDS011;14353;46.070;13.222;2023-06-10T06:02:24;5.75;;;5.07;;
23376;SDS011;14353;46.070;13.222;2023-06-10T06:04:50;5.00;;;4.50;;
23376;SDS011;14353;46.070;13.222;2023-06-10T06:07:16;7.97;;;5.22;;
23376;SDS011;14353;46.070;13.222;2023-06-10T06:09:42;6.95;;;5.30;;
23376;SDS011;14353;46.070;13.222;2023-06-10T06:12:07;7.13;;;4.75;;
23376;SDS011;14353;46.070;13.222;2023-06-10T06:14:36;5.78;;;4.75;;
23376;SDS011;14353;46.070;13.222;2023-06-10T06:17:04;6.50;;;4.88;;
23376;SDS011;14353;46.070;13.222;2023-06-10T06:19:31;5.45;;;4.95;;
23376;SDS011;14353;46.070;13.222;2023-06-10T06:21:56;8.25;;;5.30;;
23376;SDS011;14353;46.070;13.222;2023-06-10T06:24:22;5.90;;;4.95;;
23376;SDS011;14353;46.070;13.222;2023-06-10T06:26:48;6.20;;;4.75;;
23376;SDS011;14353;46.070;13.222;2023-06-10T06:29:13;6.25;;;5.20;;
23376;SDS011;14353;46.070;13.222;2023-06-10T06:31:39;8.88;;;7.97;;
23376;SDS011;14353;46.070;13.222;2023-06-10T06:34:05;11.85;;;10.65;;
23376;SDS011;14353;46.070;13.222;2023-06-10T06:36:30;13.23;;;10.27;;
23376;SDS011;14353;46.070;13.222;2023-06-10T06:38:56;12.50;;;10.45;;
23376;SDS011;14353;46.070;13.222;2023-06-10T06:41:23;10.15;;;9.18;;
23376;SDS011;14353;46.070;13.222;2023-06-10T06:43:51;13.70;;;11.32;;
23376;SDS011;14353;46.070;13.222;2023-06-10T06:46:17;11.35;;;10.25;;
23376;SDS011;14353;46.070;13.222;2023-06-10T06:48:42;7.75;;;6.55;;
23376;SDS011;14353;46.070;13.222;2023-06-10T06:51:08;9.10;;;8.07;;
23376;SDS011;14353;46.070;13.222;2023-06-10T06:53:34;8.43;;;7.53;;
23376;SDS011;14353;46.070;13.222;2023-06-10T06:56:00;7.97;;;6.82;;
23376;SDS011;14353;46.070;13.222;2023-06-10T06:58:27;8.40;;;7.03;;
23376;SDS011;14353;46.070;13.222;2023-06-10T07:00:52;6.68;;;6.07;;
23376;SDS011;14353;46.070;13.222;2023-06-10T07:03:18;8.35;;;5.90;;
23376;SDS011;14353;46.070;13.222;2023-06-10T07:05:44;7.20;;;5.88;;
23376;SDS011;14353;46.070;13.222;2023-06-10T07:08:09;7.38;;;6.22;;
23376;SDS011;14353;46.070;13.222;2023-06-10T07:10:37;8.63;;;5.75;;
23376;SDS011;14353;46.070;13.222;2023-06-10T07:13:02;6.78;;;5.68;;
23376;SDS011;14353;46.070;13.222;2023-06-10T07:15:28;6.72;;;5.80;;
23376;SDS011;14353;46.070;13.222;2023-06-10T07:17:54;6.57;;;4.95;;
23376;SDS011;14353;46.070;13.222;2023-06-10T07:20:20;6.85;;;5.50;;
23376;SDS011;14353;46.070;13.222;2023-06-10T07:22:46;5.78;;;5.18;;
23376;SDS011;14353;46.070;13.222;2023-06-10T07:25:11;5.57;;;5.07;;
23376;SDS011;14353;46.070;13.222;2023-06-10T07:27:37;6.78;;;5.35;;
23376;SDS011;14353;46.070;13.222;2023-06-10T07:30:04;8.35;;;5.72;;
23376;SDS011;14353;46.070;13.222;2023-06-10T07:32:33;5.78;;;5.20;;
23376;SDS011;14353;46.070;13.222;2023-06-10T07:34:58;6.15;;;4.95;;
23376;SDS011;14353;46.070;13.222;2023-06-10T07:37:24;5.70;;;4.85;;
23376;SDS011;14353;46.070;13.222;2023-06-10T07:39:50;5.85;;;4.93;;
23376;SDS011;14353;46.070;13.222;2023-06-10T07:42:16;5.80;;;4.60;;
23376;SDS011;14353;46.070;13.222;2023-06-10T07:44:42;7.40;;;4.85;;
23376;SDS011;14353;46.070;13.222;2023-06-10T07:47:08;6.53;;;4.90;;
23376;SDS011;14353;46.070;13.222;2023-06-10T07:49:34;4.95;;;4.53;;
23376;SDS011;14353;46.070;13.222;2023-06-10T07:51:59;5.10;;;4.60;;
23376;SDS011;14353;46.070;13.222;2023-06-10T07:54:25;4.88;;;4.47;;
23376;SDS011;14353;46.070;13.222;2023-06-10T07:56:50;5.22;;;4.70;;
23376;SDS011;14353;46.070;13.222;2023-06-10T07:59:18;6.05;;;4.90;;
23376;SDS011;14353;46.070;13.222;2023-06-10T08:01:43;5.10;;;4.70;;
23376;SDS011;14353;46.070;13.222;2023-06-10T08:04:09;5.32;;;4.82;;
23376;SDS011;14353;46.070;13.222;2023-06-10T08:06:35;4.85;;;4.40;;
23376;SDS011;14353;46.070;13.222;2023-06-10T08:09:02;5.70;;;4.60;;
23376;SDS011;14353;46.070;13.222;2023-06-10T08:11:28;5.20;;;4.70;;
23376;SDS011;14353;46.070;13.222;2023-06-10T08:13:54;5.20;;;4.70;;
23376;SDS011;14353;46.070;13.222;2023-06-10T08:16:20;4.72;;;4.30;;
23376;SDS011;14353;46.070;13.222;2023-06-10T08:18:46;4.85;;;4.45;;
23376;SDS011;14353;46.070;13.222;2023-06-10T08:21:12;5.72;;;4.60;;
23376;SDS011;14353;46.070;13.222;2023-06-10T08:23:37;5.15;;;4.65;;
23376;SDS011;14353;46.070;13.222;2023-06-10T08:26:04;5.13;;;4.50;;
23376;SDS011;14353;46.070;13.222;2023-06-10T08:28:29;5.20;;;4.70;;
23376;SDS011;14353;46.070;13.222;2023-06-10T08:30:55;4.57;;;4.18;;
23376;SDS011;14353;46.070;13.222;2023-06-10T08:33:21;4.78;;;4.38;;
23376;SDS011;14353;46.070;13.222;2023-06-10T08:35:46;5.00;;;4.50;;
23376;SDS011;14353;46.070;13.222;2023-06-10T08:38:12;4.90;;;4.40;;
23376;SDS011;14353;46.070;13.222;2023-06-10T08:40:38;5.22;;;4.60;;
23376;SDS011;14353;46.070;13.222;2023-06-10T08:45:34;4.65;;;4.10;;
23376;SDS011;14353;46.070;13.222;2023-06-10T08:48:02;4.60;;;4.20;;
23376;SDS011;14353;46.070;13.222;2023-06-10T08:50:35;6.57;;;4.43;;
23376;SDS011;14353;46.070;13.222;2023-06-10T08:53:01;5.00;;;4.57;;
23376;SDS011;14353;46.070;13.222;2023-06-10T08:58:01;4.57;;;4.05;;
23376;SDS011;14353;46.070;13.222;2023-06-10T09:00:29;4.50;;;4.10;;
23376;SDS011;14353;46.070;13.222;2023-06-10T09:02:56;6.13;;;4.18;;
23376;SDS011;14353;46.070;13.222;2023-06-10T09:05:23;4.45;;;4.05;;
23376;SDS011;14353;46.070;13.222;2023-06-10T09:07:49;5.10;;;4.55;;
23376;SDS011;14353;46.070;13.222;2023-06-10T09:10:17;5.53;;;4.03;;
23376;SDS011;14353;46.070;13.222;2023-06-10T09:12:43;4.97;;;4.30;;
23376;SDS011;14353;46.070;13.222;2023-06-10T09:15:09;4.47;;;4.07;;
23376;SDS011;14353;46.070;13.222;2023-06-10T09:17:37;5.53;;;4.22;;
23376;SDS011;14353;46.070;13.222;2023-06-10T09:20:05;4.32;;;3.92;;
23376;SDS011;14353;46.070;13.222;2023-06-10T09:22:34;5.13;;;4.20;;
23376;SDS011;14353;46.070;13.222;2023-06-10T09:25:12;4.57;;;4.18;;
23376;SDS011;14353;46.070;13.222;2023-06-10T09:27:51;4.20;;;3.80;;
23376;SDS011;14353;46.070;13.222;2023-06-10T09:30:24;4.30;;;4.00;;
23376;SDS011;14353;46.070;13.222;2023-06-10T09:32:59;4.75;;;3.95;;
23376;SDS011;14353;46.070;13.222;2023-06-10T09:35:28;5.00;;;4.50;;
23376;SDS011;14353;46.070;13.222;2023-06-10T09:37:55;4.40;;;4.00;;
23376;SDS011;14353;46.070;13.222;2023-06-10T09:40:23;4.10;;;3.80;;
23376;SDS011;14353;46.070;13.222;2023-06-10T09:42:58;4.55;;;3.97;;
23376;SDS011;14353;46.070;13.222;2023-06-10T09:45:31;4.30;;;3.90;;
23376;SDS011;14353;46.070;13.222;2023-06-10T09:47:57;4.30;;;3.90;;
23376;SDS011;14353;46.070;13.222;2023-06-10T09:50:23;4.40;;;4.00;;
23376;SDS011;14353;46.070;13.222;2023-06-10T09:52:50;4.63;;;4.22;;
23376;SDS011;14353;46.070;13.222;2023-06-10T09:55:16;4.85;;;4.00;;
23376;SDS011;14353;46.070;13.222;2023-06-10T09:57:42;4.47;;;4.07;;
23376;SDS011;14353;46.070;13.222;2023-06-10T10:00:14;4.30;;;3.90;;
23376;SDS011;14353;46.070;13.222;2023-06-10T10:02:47;4.00;;;3.70;;
23376;SDS011;14353;46.070;13.222;2023-06-10T10:05:17;4.35;;;3.95;;
23376;SDS011;14353;46.070;13.222;2023-06-10T10:07:44;4.18;;;3.80;;
23376;SDS011;14353;46.070;13.222;2023-06-10T10:10:10;4.97;;;4.00;;
23376;SDS011;14353;46.070;13.222;2023-06-10T10:12:38;4.18;;;3.70;;
23376;SDS011;14353;46.070;13.222;2023-06-10T10:15:08;4.53;;;4.13;;
23376;SDS011;14353;46.070;13.222;2023-06-10T10:17:40;4.47;;;4.07;;
23376;SDS011;14353;46.070;13.222;2023-06-10T10:20:24;4.30;;;3.90;;
23376;SDS011;14353;46.070;13.222;2023-06-10T10:22:56;4.95;;;3.80;;
23376;SDS011;14353;46.070;13.222;2023-06-10T10:25:27;4.28;;;3.88;;
23376;SDS011;14353;46.070;13.222;2023-06-10T10:30:37;4.22;;;3.83;;
23376;SDS011;14353;46.070;13.222;2023-06-10T10:33:12;4.20;;;3.80;;
23376;SDS011;14353;46.070;13.222;2023-06-10T10:35:41;4.00;;;3.70;;
23376;SDS011;14353;46.070;13.222;2023-06-10T10:38:08;4.22;;;3.83;;
23376;SDS011;14353;46.070;13.222;2023-06-10T10:40:34;3.83;;;3.53;;
23376;SDS011;14353;46.070;13.222;2023-06-10T10:43:01;4.00;;;3.58;;
23376;SDS011;14353;46.070;13.222;2023-06-10T10:45:28;4.40;;;4.00;;
23376;SDS011;14353;46.070;13.222;2023-06-10T10:47:54;4.00;;;3.70;;
23376;SDS011;14353;46.070;13.222;2023-06-10T10:50:21;4.07;;;3.72;;
23376;SDS011;14353;46.070;13.222;2023-06-10T10:52:54;3.67;;;3.38;;
23376;SDS011;14353;46.070;13.222;2023-06-10T10:55:22;4.35;;;3.95;;
23376;SDS011;14353;46.070;13.222;2023-06-10T10:57:55;4.20;;;3.88;;
23376;SDS011;14353;46.070;13.222;2023-06-10T11:00:28;4.40;;;4.00;;
23376;SDS011;14353;46.070;13.222;2023-06-10T11:03:15;4.22;;;3.78;;
23376;SDS011;14353;46.070;13.222;2023-06-10T11:05:44;4.15;;;3.85;;
23376;SDS011;14353;46.070;13.222;2023-06-10T11:11:00;4.28;;;3.88;;
23376;SDS011;14353;46.070;13.222;2023-06-10T11:13:42;4.05;;;3.70;;
23376;SDS011;14353;46.070;13.222;2023-06-10T11:16:38;5.53;;;3.70;;
23376;SDS011;14353;46.070;13.222;2023-06-10T11:19:08;3.80;;;3.50;;
23376;SDS011;14353;46.070;13.222;2023-06-10T11:21:45;4.10;;;3.70;;
23376;SDS011;14353;46.070;13.222;2023-06-10T11:24:28;4.28;;;3.97;;
23376;SDS011;14353;46.070;13.222;2023-06-10T11:26:54;4.18;;;3.78;;
23376;SDS011;14353;46.070;13.222;2023-06-10T11:29:39;3.75;;;3.45;;
23376;SDS011;14353;46.070;13.222;2023-06-10T11:32:05;3.78;;;3.47;;
23376;SDS011;14353;46.070;13.222;2023-06-10T11:34:32;4.00;;;3.70;;
23376;SDS011;14353;46.070;13.222;2023-06-10T11:36:58;3.58;;;3.30;;
23376;SDS011;14353;46.070;13.222;2023-06-10T11:39:25;3.90;;;3.60;;
23376;SDS011;14353;46.070;13.222;2023-06-10T11:41:51;3.67;;;3.30;;
23376;SDS011;14353;46.070;13.222;2023-06-10T11:44:17;3.97;;;3.67;;
23376;SDS011;14353;46.070;13.222;2023-06-10T11:46:43;4.05;;;3.75;;
23376;SDS011;14353;46.070;13.222;2023-06-10T11:49:10;3.70;;;3.40;;
23376;SDS011;14353;46.070;13.222;2023-06-10T11:51:37;4.10;;;3.80;;
23376;SDS011;14353;46.070;13.222;2023-06-10T11:54:05;3.67;;;3.38;;
23376;SDS011;14353;46.070;13.222;2023-06-10T11:56:33;3.63;;;3.33;;
23376;SDS011;14353;46.070;13.222;2023-06-10T11:59:00;3.70;;;3.40;;
23376;SDS011;14353;46.070;13.222;2023-06-10T12:01:36;3.80;;;3.50;;
23376;SDS011;14353;46.070;13.222;2023-06-10T12:04:08;4.10;;;3.80;;
23376;SDS011;14353;46.070;13.222;2023-06-10T12:06:40;3.63;;;3.33;;
23376;SDS011;14353;46.070;13.222;2023-06-10T12:11:42;4.03;;;3.67;;
23376;SDS011;14353;46.070;13.222;2023-06-10T12:14:08;3.80;;;3.50;;
23376;SDS011;14353;46.070;13.222;2023-06-10T12:16:34;4.20;;;3.80;;
23376;SDS011;14353;46.070;13.222;2023-06-10T12:19:03;4.00;;;3.60;;
23376;SDS011;14353;46.070;13.222;2023-06-10T12:21:31;4.30;;;3.53;;
23376;SDS011;14353;46.070;13.222;2023-06-10T12:26:35;3.80;;;3.50;;
23376;SDS011;14353;46.070;13.222;2023-06-10T12:29:21;3.75;;;3.45;;
23376;SDS011;14353;46.070;13.222;2023-06-10T12:31:53;3.60;;;3.30;;
23376;SDS011;14353;46.070;13.222;2023-06-10T12:34:19;3.83;;;3.53;;
23376;SDS011;14353;46.070;13.222;2023-06-10T12:39:18;4.05;;;3.75;;
23376;SDS011;14353;46.070;13.222;2023-06-10T12:41:53;3.50;;;3.20;;
23376;SDS011;14353;46.070;13.222;2023-06-10T12:44:28;3.40;;;3.10;;
23376;SDS011;14353;46.070;13.222;2023-06-10T12:46:55;3.63;;;3.33;;
23376;SDS011;14353;46.070;13.222;2023-06-10T12:49:20;3.33;;;3.03;;
23376;SDS011;14353;46.070;13.222;2023-06-10T12:51:47;3.58;;;3.28;;
23376;SDS011;14353;46.070;13.222;2023-06-10T12:54:12;3.70;;;3.40;;
23376;SDS011;14353;46.070;13.222;2023-06-10T12:56:38;3.75;;;3.45;;
23376;SDS011;14353;46.070;13.222;2023-06-10T12:59:04;3.65;;;3.35;;
23376;SDS011;14353;46.070;13.222;2023-06-10T13:01:30;3.63;;;3.33;;
23376;SDS011;14353;46.070;13.222;2023-06-10T13:03:56;3.63;;;3.33;;
23376;SDS011;14353;46.070;13.222;2023-06-10T13:06:22;3.72;;;3.42;;
23376;SDS011;14353;46.070;13.222;2023-06-10T13:08:48;3.90;;;3.60;;
23376;SDS011;14353;46.070;13.222;2023-06-10T13:11:14;3.53;;;3.22;;
23376;SDS011;14353;46.070;13.222;2023-06-10T13:13:39;3.60;;;3.30;;
23376;SDS011;14353;46.070;13.222;2023-06-10T13:16:05;3.78;;;3.47;;
23376;SDS011;14353;46.070;13.222;2023-06-10T13:18:32;3.60;;;3.30;;
23376;SDS011;14353;46.070;13.222;2023-06-10T13:21:03;3.60;;;3.30;;
23376;SDS011;14353;46.070;13.222;2023-06-10T13:23:29;3.63;;;3.33;;
23376;SDS011;14353;46.070;13.222;2023-06-10T13:25:56;3.70;;;3.40;;
23376;SDS011;14353;46.070;13.222;2023-06-10T13:28:22;3.33;;;3.10;;
23376;SDS011;14353;46.070;13.222;2023-06-10T13:30:48;3.50;;;3.22;;
23376;SDS011;14353;46.070;13.222;2023-06-10T13:33:13;4.20;;;3.80;;
23376;SDS011;14353;46.070;13.222;2023-06-10T13:35:39;3.70;;;3.40;;
23376;SDS011;14353;46.070;13.222;2023-06-10T13:38:06;3.75;;;3.45;;
23376;SDS011;14353;46.070;13.222;2023-06-10T13:40:32;3.35;;;3.05;;
23376;SDS011;14353;46.070;13.222;2023-06-10T13:42:58;3.70;;;3.40;;
23376;SDS011;14353;46.070;13.222;2023-06-10T13:45:24;3.97;;;3.67;;
23376;SDS011;14353;46.070;13.222;2023-06-10T13:47:50;3.35;;;3.05;;
23376;SDS011;14353;46.070;13.222;2023-06-10T13:50:16;3.60;;;3.30;;
23376;SDS011;14353;46.070;13.222;2023-06-10T13:52:42;3.60;;;3.30;;
23376;SDS011;14353;46.070;13.222;2023-06-10T13:55:08;3.70;;;3.40;;
23376;SDS011;14353;46.070;13.222;2023-06-10T13:57:34;3.38;;;3.10;;
23376;SDS011;14353;46.070;13.222;2023-06-10T13:59:59;3.53;;;3.22;;
23376;SDS011;14353;46.070;13.222;2023-06-10T14:02:25;3.60;;;3.30;;
23376;SDS011;14353;46.070;13.222;2023-06-10T14:04:51;3.28;;;2.97;;
23376;SDS011;14353;46.070;13.222;2023-06-10T14:07:16;3.92;;;3.63;;
23376;SDS011;14353;46.070;13.222;2023-06-10T14:09:42;3.78;;;3.40;;
23376;SDS011;14353;46.070;13.222;2023-06-10T14:12:08;3.75;;;3.45;;
23376;SDS011;14353;46.070;13.222;2023-06-10T14:14:35;3.70;;;3.40;;
23376;SDS011;14353;46.070;13.222;2023-06-10T14:17:01;3.78;;;3.47;;
23376;SDS011;14353;46.070;13.222;2023-06-10T14:19:28;3.33;;;3.03;;
23376;SDS011;14353;46.070;13.222;2023-06-10T14:21:54;3.95;;;3.65;;
23376;SDS011;14353;46.070;13.222;2023-06-10T14:24:20;3.40;;;3.10;;
23376;SDS011;14353;46.070;13.222;2023-06-10T14:26:46;3.28;;;3.05;;
23376;SDS011;14353;46.070;13.222;2023-06-10T14:29:12;3.92;;;3.60;;
23376;SDS011;14353;46.070;13.222;2023-06-10T14:31:39;3.60;;;3.30;;
23376;SDS011;14353;46.070;13.222;2023-06-10T14:34:05;3.72;;;3.42;;
23376;SDS011;14353;46.070;13.222;2023-06-10T14:36:33;3.50;;;3.20;;
23376;SDS011;14353;46.070;13.222;2023-06-10T14:38:58;3.58;;;3.28;;
23376;SDS011;14353;46.070;13.222;2023-06-10T14:41:24;3.83;;;3.25;;
23376;SDS011;14353;46.070;13.222;2023-06-10T14:43:51;3.40;;;3.10;;
23376;SDS011;14353;46.070;13.222;2023-06-10T14:46:17;3.30;;;3.00;;
23376;SDS011;14353;46.070;13.222;2023-06-10T14:48:42;3.10;;;2.90;;
23376;SDS011;14353;46.070;13.222;2023-06-10T14:51:08;3.47;;;3.17;;
23376;SDS011;14353;46.070;13.222;2023-06-10T14:53:34;3.42;;;3.17;;
23376;SDS011;14353;46.070;13.222;2023-06-10T14:56:00;3.42;;;3.13;;
23376;SDS011;14353;46.070;13.222;2023-06-10T14:58:25;3.38;;;3.08;;
23376;SDS011;14353;46.070;13.222;2023-06-10T15:00:51;3.70;;;3.40;;